sensor_id;sensor_type;location;lat;lon;timestamp;temperature;humidity
64209;DHT22;50527;52.414;13.226;2022-11-14T00:02:16;7.00;99.90
64209;DHT22;50527;52.414;13.226;2022-11-14T00:04:45;7.00;99.90
64209;DHT22;50527;52.414;13.226;2022-11-14T00:07:10;7.00;99.90
64209;DHT22;50527;52.414;13.226;2022-11-14T00:09:36;7.00;99.90
64209;DHT22;50527;52.414;13.226;2022-11-14T00:12:03;6.90;99.90
64209;DHT22;50527;52.414;13.226;2022-11-14T00:14:29;7.00;99.90
64209;DHT22;50527;52.414;13.226;2022-11-14T00:16:54;6.90;99.90
64209;DHT22;50527;52.414;13.226;2022-11-14T00:19:20;6.90;99.90
64209;DHT22;50527;52.414;13.226;2022-11-14T00:21:45;6.90;99.90
64209;DHT22;50527;52.414;13.226;2022-11-14T00:24:11;6.80;99.90
64209;DHT22;50527;52.414;13.226;2022-11-14T00:26:36;6.80;99.90
64209;DHT22;50527;52.414;13.226;2022-11-14T00:29:02;6.80;99.90
64209;DHT22;50527;52.414;13.226;2022-11-14T00:31:28;6.70;99.90
64209;DHT22;50527;52.414;13.226;2022-11-14T00:33:53;6.70;99.90
64209;DHT22;50527;52.414;13.226;2022-11-14T00:36:18;6.70;99.90
64209;DHT22;50527;52.414;13.226;2022-11-14T00:38:44;6.70;99.90
64209;DHT22;50527;52.414;13.226;2022-11-14T00:41:09;6.70;99.90
64209;DHT22;50527;52.414;13.226;2022-11-14T00:43:35;6.70;99.90
64209;DHT22;50527;52.414;13.226;2022-11-14T00:46:01;6.70;99.90
64209;DHT22;50527;52.414;13.226;2022-11-14T00:48:26;6.70;99.90
64209;DHT22;50527;52.414;13.226;2022-11-14T00:50:52;6.70;99.90
64209;DHT22;50527;52.414;13.226;2022-11-14T00:53:18;6.70;99.90
64209;DHT22;50527;52.414;13.226;2022-11-14T00:55:43;6.60;99.90
64209;DHT22;50527;52.414;13.226;2022-11-14T00:58:09;6.70;99.90
64209;DHT22;50527;52.414;13.226;2022-11-14T01:00:34;6.70;99.90
64209;DHT22;50527;52.414;13.226;2022-11-14T01:03:00;6.70;99.90
64209;DHT22;50527;52.414;13.226;2022-11-14T01:05:26;6.70;99.90
64209;DHT22;50527;52.414;13.226;2022-11-14T01:07:51;6.70;99.90
64209;DHT22;50527;52.414;13.226;2022-11-14T01:10:17;6.70;99.90
64209;DHT22;50527;52.414;13.226;2022-11-14T01:12:43;6.70;99.90
64209;DHT22;50527;52.414;13.226;2022-11-14T01:15:08;6.80;99.90
64209;DHT22;50527;52.414;13.226;2022-11-14T01:17:34;6.70;99.90
64209;DHT22;50527;52.414;13.226;2022-11-14T01:20:00;6.70;99.90
64209;DHT22;50527;52.414;13.226;2022-11-14T01:22:25;6.70;99.90
64209;DHT22;50527;52.414;13.226;2022-11-14T01:24:51;6.70;99.90
64209;DHT22;50527;52.414;13.226;2022-11-14T01:27:16;6.70;99.90
64209;DHT22;50527;52.414;13.226;2022-11-14T01:29:42;6.70;99.90
64209;DHT22;50527;52.414;13.226;2022-11-14T01:32:07;6.70;99.90
64209;DHT22;50527;52.414;13.226;2022-11-14T01:34:33;6.60;99.90
64209;DHT22;50527;52.414;13.226;2022-11-14T01:36:58;6.60;99.90
64209;DHT22;50527;52.414;13.226;2022-11-14T01:39:25;6.60;99.90
64209;DHT22;50527;52.414;13.226;2022-11-14T01:41:51;6.50;99.90
64209;DHT22;50527;52.414;13.226;2022-11-14T01:44:40;6.60;99.90
64209;DHT22;50527;52.414;13.226;2022-11-14T01:47:09;6.50;99.90
64209;DHT22;50527;52.414;13.226;2022-11-14T01:49:38;6.50;99.90
64209;DHT22;50527;52.414;13.226;2022-11-14T01:52:06;6.50;99.90
64209;DHT22;50527;52.414;13.226;2022-11-14T01:54:38;6.50;99.90
64209;DHT22;50527;52.414;13.226;2022-11-14T01:57:05;6.50;99.90
64209;DHT22;50527;52.414;13.226;2022-11-14T01:59:36;6.50;99.90
64209;DHT22;50527;52.414;13.226;2022-11-14T02:02:19;6.40;99.90
64209;DHT22;50527;52.414;13.226;2022-11-14T02:07:42;6.50;99.90
64209;DHT22;50527;52.414;13.226;2022-11-14T02:10:17;6.60;99.90
64209;DHT22;50527;52.414;13.226;2022-11-14T02:12:43;6.60;99.90
64209;DHT22;50527;52.414;13.226;2022-11-14T02:15:09;6.70;99.90
64209;DHT22;50527;52.414;13.226;2022-11-14T02:17:35;6.70;99.90
64209;DHT22;50527;52.414;13.226;2022-11-14T02:22:40;6.90;99.90
64209;DHT22;50527;52.414;13.226;2022-11-14T02:25:07;6.90;99.90
64209;DHT22;50527;52.414;13.226;2022-11-14T02:27:34;6.90;99.90
64209;DHT22;50527;52.414;13.226;2022-11-14T02:30:05;6.90;99.90
64209;DHT22;50527;52.414;13.226;2022-11-14T02:32:31;6.90;99.90
64209;DHT22;50527;52.414;13.226;2022-11-14T02:34:56;7.00;99.90
64209;DHT22;50527;52.414;13.226;2022-11-14T02:37:22;6.90;99.90
64209;DHT22;50527;52.414;13.226;2022-11-14T02:39:47;6.90;99.90
64209;DHT22;50527;52.414;13.226;2022-11-14T02:42:13;7.00;99.90
64209;DHT22;50527;52.414;13.226;2022-11-14T02:44:38;6.90;99.90
64209;DHT22;50527;52.414;13.226;2022-11-14T02:47:04;7.00;99.90
64209;DHT22;50527;52.414;13.226;2022-11-14T02:49:29;7.00;99.90
64209;DHT22;50527;52.414;13.226;2022-11-14T02:51:55;7.00;99.90
64209;DHT22;50527;52.414;13.226;2022-11-14T02:54:20;7.00;99.90
64209;DHT22;50527;52.414;13.226;2022-11-14T02:56:46;7.10;99.90
64209;DHT22;50527;52.414;13.226;2022-11-14T02:59:11;7.10;99.90
64209;DHT22;50527;52.414;13.226;2022-11-14T03:01:36;7.10;99.90
64209;DHT22;50527;52.414;13.226;2022-11-14T03:04:02;7.20;99.90
64209;DHT22;50527;52.414;13.226;2022-11-14T03:06:28;7.10;99.90
64209;DHT22;50527;52.414;13.226;2022-11-14T03:08:53;7.10;99.90
64209;DHT22;50527;52.414;13.226;2022-11-14T03:11:18;7.10;99.90
64209;DHT22;50527;52.414;13.226;2022-11-14T03:13:44;7.10;99.90
64209;DHT22;50527;52.414;13.226;2022-11-14T03:16:11;7.10;99.90
64209;DHT22;50527;52.414;13.226;2022-11-14T03:18:37;7.00;99.90
64209;DHT22;50527;52.414;13.226;2022-11-14T03:21:11;7.00;99.90
64209;DHT22;50527;52.414;13.226;2022-11-14T03:23:37;7.00;99.90
64209;DHT22;50527;52.414;13.226;2022-11-14T03:26:05;7.10;99.90
64209;DHT22;50527;52.414;13.226;2022-11-14T03:28:31;7.10;99.90
64209;DHT22;50527;52.414;13.226;2022-11-14T03:30:56;7.10;99.90
64209;DHT22;50527;52.414;13.226;2022-11-14T03:33:22;7.10;99.90
64209;DHT22;50527;52.414;13.226;2022-11-14T03:35:49;7.10;99.90
64209;DHT22;50527;52.414;13.226;2022-11-14T03:38:15;7.10;99.90
64209;DHT22;50527;52.414;13.226;2022-11-14T03:40:40;7.10;99.90
64209;DHT22;50527;52.414;13.226;2022-11-14T03:43:06;7.10;99.90
64209;DHT22;50527;52.414;13.226;2022-11-14T03:45:32;7.10;99.90
64209;DHT22;50527;52.414;13.226;2022-11-14T03:47:57;7.10;99.90
64209;DHT22;50527;52.414;13.226;2022-11-14T03:50:23;7.10;99.90
64209;DHT22;50527;52.414;13.226;2022-11-14T03:52:48;7.10;99.90
64209;DHT22;50527;52.414;13.226;2022-11-14T03:55:14;7.10;99.90
64209;DHT22;50527;52.414;13.226;2022-11-14T03:57:39;7.10;99.90
64209;DHT22;50527;52.414;13.226;2022-11-14T04:00:05;7.10;99.90
64209;DHT22;50527;52.414;13.226;2022-11-14T04:02:31;7.10;99.90
64209;DHT22;50527;52.414;13.226;2022-11-14T04:04:56;7.10;99.90
64209;DHT22;50527;52.414;13.226;2022-11-14T04:07:22;7.10;99.90
64209;DHT22;50527;52.414;13.226;2022-11-14T04:09:47;7.10;99.90
64209;DHT22;50527;52.414;13.226;2022-11-14T04:12:13;7.10;99.90
64209;DHT22;50527;52.414;13.226;2022-11-14T04:14:38;7.20;99.90
64209;DHT22;50527;52.414;13.226;2022-11-14T04:17:04;7.10;99.90
64209;DHT22;50527;52.414;13.226;2022-11-14T04:19:29;7.10;99.90
64209;DHT22;50527;52.414;13.226;2022-11-14T04:21:54;7.10;99.90
64209;DHT22;50527;52.414;13.226;2022-11-14T04:24:20;7.00;99.90
64209;DHT22;50527;52.414;13.226;2022-11-14T04:26:45;7.00;99.90
64209;DHT22;50527;52.414;13.226;2022-11-14T04:29:11;7.00;99.90
64209;DHT22;50527;52.414;13.226;2022-11-14T04:31:36;7.00;99.90
64209;DHT22;50527;52.414;13.226;2022-11-14T04:34:02;7.00;99.90
64209;DHT22;50527;52.414;13.226;2022-11-14T04:36:27;7.00;99.90
64209;DHT22;50527;52.414;13.226;2022-11-14T04:38:53;7.00;99.90
64209;DHT22;50527;52.414;13.226;2022-11-14T04:41:18;7.00;99.90
64209;DHT22;50527;52.414;13.226;2022-11-14T04:43:44;6.90;99.90
64209;DHT22;50527;52.414;13.226;2022-11-14T04:46:09;7.00;99.90
64209;DHT22;50527;52.414;13.226;2022-11-14T04:48:34;7.00;99.90
64209;DHT22;50527;52.414;13.226;2022-11-14T04:51:00;7.10;99.90
64209;DHT22;50527;52.414;13.226;2022-11-14T04:53:25;7.00;99.90
64209;DHT22;50527;52.414;13.226;2022-11-14T04:55:51;6.90;99.90
64209;DHT22;50527;52.414;13.226;2022-11-14T04:58:17;6.90;99.90
64209;DHT22;50527;52.414;13.226;2022-11-14T05:00:42;6.80;99.90
64209;DHT22;50527;52.414;13.226;2022-11-14T05:03:08;6.90;99.90
64209;DHT22;50527;52.414;13.226;2022-11-14T05:05:33;6.90;99.90
64209;DHT22;50527;52.414;13.226;2022-11-14T05:07:59;6.80;99.90
64209;DHT22;50527;52.414;13.226;2022-11-14T05:10:24;6.80;99.90
64209;DHT22;50527;52.414;13.226;2022-11-14T05:12:53;6.70;99.90
64209;DHT22;50527;52.414;13.226;2022-11-14T05:15:19;6.80;99.90
64209;DHT22;50527;52.414;13.226;2022-11-14T05:17:45;6.70;99.90
64209;DHT22;50527;52.414;13.226;2022-11-14T05:20:11;6.80;99.90
64209;DHT22;50527;52.414;13.226;2022-11-14T05:22:37;6.70;99.90
64209;DHT22;50527;52.414;13.226;2022-11-14T05:25:03;6.80;99.90
64209;DHT22;50527;52.414;13.226;2022-11-14T05:27:28;6.70;99.90
64209;DHT22;50527;52.414;13.226;2022-11-14T05:29:54;6.70;99.90
64209;DHT22;50527;52.414;13.226;2022-11-14T05:32:20;6.70;99.90
64209;DHT22;50527;52.414;13.226;2022-11-14T05:34:46;6.80;99.90
64209;DHT22;50527;52.414;13.226;2022-11-14T05:37:11;6.80;99.90
64209;DHT22;50527;52.414;13.226;2022-11-14T05:39:37;6.70;99.90
64209;DHT22;50527;52.414;13.226;2022-11-14T05:42:02;6.70;99.90
64209;DHT22;50527;52.414;13.226;2022-11-14T05:44:28;6.70;99.90
64209;DHT22;50527;52.414;13.226;2022-11-14T05:46:53;6.60;99.90
64209;DHT22;50527;52.414;13.226;2022-11-14T05:49:19;6.70;99.90
64209;DHT22;50527;52.414;13.226;2022-11-14T05:51:44;6.70;99.90
64209;DHT22;50527;52.414;13.226;2022-11-14T05:54:10;6.70;99.90
64209;DHT22;50527;52.414;13.226;2022-11-14T05:56:35;6.70;99.90
64209;DHT22;50527;52.414;13.226;2022-11-14T05:59:01;6.70;99.90
64209;DHT22;50527;52.414;13.226;2022-11-14T06:01:26;6.70;99.90
64209;DHT22;50527;52.414;13.226;2022-11-14T06:03:52;6.70;99.90
64209;DHT22;50527;52.414;13.226;2022-11-14T06:06:19;6.70;99.90
64209;DHT22;50527;52.414;13.226;2022-11-14T06:08:45;6.70;99.90
64209;DHT22;50527;52.414;13.226;2022-11-14T06:11:13;6.70;99.90
64209;DHT22;50527;52.414;13.226;2022-11-14T06:13:40;6.70;99.90
64209;DHT22;50527;52.414;13.226;2022-11-14T06:16:09;6.70;99.90
64209;DHT22;50527;52.414;13.226;2022-11-14T06:18:35;6.70;99.90
64209;DHT22;50527;52.414;13.226;2022-11-14T06:21:03;6.70;99.90
64209;DHT22;50527;52.414;13.226;2022-11-14T06:23:29;6.80;99.90
64209;DHT22;50527;52.414;13.226;2022-11-14T06:25:59;6.70;99.90
64209;DHT22;50527;52.414;13.226;2022-11-14T06:28:25;6.60;99.90
64209;DHT22;50527;52.414;13.226;2022-11-14T06:30:50;6.60;99.90
64209;DHT22;50527;52.414;13.226;2022-11-14T06:33:16;6.70;99.90
64209;DHT22;50527;52.414;13.226;2022-11-14T06:35:41;6.70;99.90
64209;DHT22;50527;52.414;13.226;2022-11-14T06:38:07;6.80;99.90
64209;DHT22;50527;52.414;13.226;2022-11-14T06:40:32;6.70;99.90
64209;DHT22;50527;52.414;13.226;2022-11-14T06:42:57;6.60;99.90
64209;DHT22;50527;52.414;13.226;2022-11-14T06:45:23;6.70;99.90
64209;DHT22;50527;52.414;13.226;2022-11-14T06:47:48;6.60;99.90
64209;DHT22;50527;52.414;13.226;2022-11-14T06:50:14;6.50;99.90
64209;DHT22;50527;52.414;13.226;2022-11-14T06:52:39;6.50;99.90
64209;DHT22;50527;52.414;13.226;2022-11-14T06:55:05;6.40;99.90
64209;DHT22;50527;52.414;13.226;2022-11-14T06:57:31;6.50;99.90
64209;DHT22;50527;52.414;13.226;2022-11-14T06:59:56;6.40;99.90
64209;DHT22;50527;52.414;13.226;2022-11-14T07:02:22;6.50;99.90
64209;DHT22;50527;52.414;13.226;2022-11-14T07:04:47;6.50;99.90
64209;DHT22;50527;52.414;13.226;2022-11-14T07:07:13;6.50;99.90
64209;DHT22;50527;52.414;13.226;2022-11-14T07:09:39;6.50;99.90
64209;DHT22;50527;52.414;13.226;2022-11-14T07:12:05;6.50;99.90
64209;DHT22;50527;52.414;13.226;2022-11-14T07:14:30;6.50;99.90
64209;DHT22;50527;52.414;13.226;2022-11-14T07:16:56;6.40;99.90
64209;DHT22;50527;52.414;13.226;2022-11-14T07:19:22;6.50;99.90
64209;DHT22;50527;52.414;13.226;2022-11-14T07:21:47;6.50;99.90
64209;DHT22;50527;52.414;13.226;2022-11-14T07:24:13;6.60;99.90
64209;DHT22;50527;52.414;13.226;2022-11-14T07:26:38;6.50;99.90
64209;DHT22;50527;52.414;13.226;2022-11-14T07:29:04;6.50;99.90
64209;DHT22;50527;52.414;13.226;2022-11-14T07:31:29;6.60;99.90
64209;DHT22;50527;52.414;13.226;2022-11-14T07:33:55;6.60;99.90
64209;DHT22;50527;52.414;13.226;2022-11-14T07:36:20;6.70;99.90
64209;DHT22;50527;52.414;13.226;2022-11-14T07:38:46;6.80;99.90
64209;DHT22;50527;52.414;13.226;2022-11-14T07:41:13;6.70;99.90
64209;DHT22;50527;52.414;13.226;2022-11-14T07:43:39;6.70;99.90
64209;DHT22;50527;52.414;13.226;2022-11-14T07:46:07;6.70;99.90
64209;DHT22;50527;52.414;13.226;2022-11-14T07:48:34;6.80;99.90
64209;DHT22;50527;52.414;13.226;2022-11-14T07:51:01;6.90;99.90
64209;DHT22;50527;52.414;13.226;2022-11-14T07:53:28;7.00;99.90
64209;DHT22;50527;52.414;13.226;2022-11-14T07:55:54;7.10;99.90
64209;DHT22;50527;52.414;13.226;2022-11-14T07:58:19;7.10;99.90
64209;DHT22;50527;52.414;13.226;2022-11-14T08:00:45;7.20;99.90
64209;DHT22;50527;52.414;13.226;2022-11-14T08:03:11;7.20;99.90
64209;DHT22;50527;52.414;13.226;2022-11-14T08:05:36;7.30;99.90
64209;DHT22;50527;52.414;13.226;2022-11-14T08:08:03;7.30;99.90
64209;DHT22;50527;52.414;13.226;2022-11-14T08:10:28;7.30;99.90
64209;DHT22;50527;52.414;13.226;2022-11-14T08:13:02;7.30;99.90
64209;DHT22;50527;52.414;13.226;2022-11-14T08:15:29;7.30;99.90
64209;DHT22;50527;52.414;13.226;2022-11-14T08:17:59;7.40;99.90
64209;DHT22;50527;52.414;13.226;2022-11-14T08:20:26;7.50;99.90
64209;DHT22;50527;52.414;13.226;2022-11-14T08:23:01;7.50;99.90
64209;DHT22;50527;52.414;13.226;2022-11-14T08:25:27;7.50;99.90
64209;DHT22;50527;52.414;13.226;2022-11-14T08:27:53;7.40;99.90
64209;DHT22;50527;52.414;13.226;2022-11-14T08:30:18;7.40;99.90
64209;DHT22;50527;52.414;13.226;2022-11-14T08:32:44;7.40;99.90
64209;DHT22;50527;52.414;13.226;2022-11-14T08:35:10;7.50;99.90
64209;DHT22;50527;52.414;13.226;2022-11-14T08:37:36;7.60;99.90
64209;DHT22;50527;52.414;13.226;2022-11-14T08:40:01;7.50;99.80
64209;DHT22;50527;52.414;13.226;2022-11-14T08:42:27;7.50;99.90
64209;DHT22;50527;52.414;13.226;2022-11-14T08:44:53;7.60;99.90
64209;DHT22;50527;52.414;13.226;2022-11-14T08:47:18;7.50;99.90
64209;DHT22;50527;52.414;13.226;2022-11-14T08:49:43;7.60;99.90
64209;DHT22;50527;52.414;13.226;2022-11-14T08:52:09;7.70;99.90
64209;DHT22;50527;52.414;13.226;2022-11-14T08:54:34;7.80;99.40
64209;DHT22;50527;52.414;13.226;2022-11-14T08:57:00;8.00;98.70
64209;DHT22;50527;52.414;13.226;2022-11-14T08:59:25;8.10;97.50
64209;DHT22;50527;52.414;13.226;2022-11-14T09:01:51;8.00;98.00
64209;DHT22;50527;52.414;13.226;2022-11-14T09:04:16;7.90;97.60
64209;DHT22;50527;52.414;13.226;2022-11-14T09:06:42;7.70;98.30
64209;DHT22;50527;52.414;13.226;2022-11-14T09:09:07;7.80;98.30
64209;DHT22;50527;52.414;13.226;2022-11-14T09:11:33;7.60;98.40
64209;DHT22;50527;52.414;13.226;2022-11-14T09:13:58;7.70;98.80
64209;DHT22;50527;52.414;13.226;2022-11-14T09:16:25;7.60;99.20
64209;DHT22;50527;52.414;13.226;2022-11-14T09:18:51;7.80;99.10
64209;DHT22;50527;52.414;13.226;2022-11-14T09:21:16;7.70;98.50
64209;DHT22;50527;52.414;13.226;2022-11-14T09:23:42;7.80;98.20
64209;DHT22;50527;52.414;13.226;2022-11-14T09:26:08;7.80;98.20
64209;DHT22;50527;52.414;13.226;2022-11-14T09:28:34;7.80;98.60
64209;DHT22;50527;52.414;13.226;2022-11-14T09:31:02;8.00;97.60
64209;DHT22;50527;52.414;13.226;2022-11-14T09:33:28;8.00;97.40
64209;DHT22;50527;52.414;13.226;2022-11-14T09:35:58;8.10;97.70
64209;DHT22;50527;52.414;13.226;2022-11-14T09:38:24;8.20;97.10
64209;DHT22;50527;52.414;13.226;2022-11-14T09:41:13;8.40;96.70
64209;DHT22;50527;52.414;13.226;2022-11-14T09:46:32;8.40;95.60
64209;DHT22;50527;52.414;13.226;2022-11-14T09:48:58;8.40;96.30
64209;DHT22;50527;52.414;13.226;2022-11-14T09:51:28;8.40;96.20
64209;DHT22;50527;52.414;13.226;2022-11-14T09:54:05;8.50;96.10
64209;DHT22;50527;52.414;13.226;2022-11-14T09:56:35;8.50;95.90
64209;DHT22;50527;52.414;13.226;2022-11-14T09:59:00;8.50;96.40
64209;DHT22;50527;52.414;13.226;2022-11-14T10:01:38;8.60;96.50
64209;DHT22;50527;52.414;13.226;2022-11-14T10:04:39;8.60;95.60
64209;DHT22;50527;52.414;13.226;2022-11-14T10:13:12;8.80;94.40
64209;DHT22;50527;52.414;13.226;2022-11-14T10:15:50;8.80;94.90
64209;DHT22;50527;52.414;13.226;2022-11-14T10:21:43;8.90;94.50
64209;DHT22;50527;52.414;13.226;2022-11-14T10:24:35;9.00;94.20
64209;DHT22;50527;52.414;13.226;2022-11-14T10:27:06;9.10;94.00
64209;DHT22;50527;52.414;13.226;2022-11-14T10:32:40;9.20;92.90
64209;DHT22;50527;52.414;13.226;2022-11-14T10:35:28;9.20;93.50
64209;DHT22;50527;52.414;13.226;2022-11-14T10:38:21;9.40;92.80
64209;DHT22;50527;52.414;13.226;2022-11-14T10:40:52;9.40;92.60
64209;DHT22;50527;52.414;13.226;2022-11-14T10:45:57;9.70;91.90
64209;DHT22;50527;52.414;13.226;2022-11-14T10:48:32;9.70;91.30
64209;DHT22;50527;52.414;13.226;2022-11-14T10:56:14;10.20;89.00
64209;DHT22;50527;52.414;13.226;2022-11-14T10:58:40;10.30;88.10
64209;DHT22;50527;52.414;13.226;2022-11-14T11:01:36;10.40;87.60
64209;DHT22;50527;52.414;13.226;2022-11-14T11:04:31;10.40;86.70
64209;DHT22;50527;52.414;13.226;2022-11-14T11:09:37;10.70;86.00
64209;DHT22;50527;52.414;13.226;2022-11-14T11:15:22;10.80;85.70
64209;DHT22;50527;52.414;13.226;2022-11-14T11:17:59;10.90;85.30
64209;DHT22;50527;52.414;13.226;2022-11-14T11:20:36;11.10;83.90
64209;DHT22;50527;52.414;13.226;2022-11-14T11:25:36;11.00;82.70
64209;DHT22;50527;52.414;13.226;2022-11-14T11:28:19;11.00;83.40
64209;DHT22;50527;52.414;13.226;2022-11-14T11:30:56;11.00;83.60
64209;DHT22;50527;52.414;13.226;2022-11-14T11:35:51;11.00;84.40
64209;DHT22;50527;52.414;13.226;2022-11-14T11:38:18;11.00;85.10
64209;DHT22;50527;52.414;13.226;2022-11-14T11:40:46;10.90;83.80
64209;DHT22;50527;52.414;13.226;2022-11-14T11:46:02;10.80;85.10
64209;DHT22;50527;52.414;13.226;2022-11-14T11:48:37;10.70;85.70
64209;DHT22;50527;52.414;13.226;2022-11-14T11:51:05;10.70;86.30
64209;DHT22;50527;52.414;13.226;2022-11-14T11:53:39;10.70;86.90
64209;DHT22;50527;52.414;13.226;2022-11-14T11:56:14;10.80;86.00
64209;DHT22;50527;52.414;13.226;2022-11-14T11:58:54;10.80;86.70
64209;DHT22;50527;52.414;13.226;2022-11-14T12:01:21;10.80;84.90
64209;DHT22;50527;52.414;13.226;2022-11-14T12:03:49;10.70;85.30
64209;DHT22;50527;52.414;13.226;2022-11-14T12:06:17;10.70;85.60
64209;DHT22;50527;52.414;13.226;2022-11-14T12:09:02;10.70;85.30
64209;DHT22;50527;52.414;13.226;2022-11-14T12:11:33;10.70;85.90
64209;DHT22;50527;52.414;13.226;2022-11-14T12:14:23;10.70;85.00
64209;DHT22;50527;52.414;13.226;2022-11-14T12:17:22;10.60;85.60
64209;DHT22;50527;52.414;13.226;2022-11-14T12:22:51;10.70;86.40
64209;DHT22;50527;52.414;13.226;2022-11-14T12:30:59;10.80;85.50
64209;DHT22;50527;52.414;13.226;2022-11-14T12:33:33;10.80;85.70
64209;DHT22;50527;52.414;13.226;2022-11-14T12:36:00;10.80;86.20
64209;DHT22;50527;52.414;13.226;2022-11-14T12:38:41;10.90;86.20
64209;DHT22;50527;52.414;13.226;2022-11-14T12:41:08;10.90;86.10
64209;DHT22;50527;52.414;13.226;2022-11-14T12:43:38;11.00;85.80
64209;DHT22;50527;52.414;13.226;2022-11-14T12:46:07;11.00;85.30
64209;DHT22;50527;52.414;13.226;2022-11-14T12:48:54;11.00;84.60
64209;DHT22;50527;52.414;13.226;2022-11-14T12:53:55;10.90;85.70
64209;DHT22;50527;52.414;13.226;2022-11-14T13:04:48;11.10;86.10
64209;DHT22;50527;52.414;13.226;2022-11-14T13:13:11;11.10;85.40
64209;DHT22;50527;52.414;13.226;2022-11-14T13:15:57;11.10;86.30
64209;DHT22;50527;52.414;13.226;2022-11-14T13:19:02;11.00;85.90
64209;DHT22;50527;52.414;13.226;2022-11-14T13:27:28;11.10;84.90
64209;DHT22;50527;52.414;13.226;2022-11-14T13:29:54;11.00;85.60
64209;DHT22;50527;52.414;13.226;2022-11-14T13:35:12;11.00;86.60
64209;DHT22;50527;52.414;13.226;2022-11-14T13:40:37;11.00;86.40
64209;DHT22;50527;52.414;13.226;2022-11-14T13:47:13;11.00;85.20
64209;DHT22;50527;52.414;13.226;2022-11-14T13:49:28;11.00;85.50
64209;DHT22;50527;52.414;13.226;2022-11-14T13:51:56;11.10;86.10
64209;DHT22;50527;52.414;13.226;2022-11-14T13:54:22;11.10;86.30
64209;DHT22;50527;52.414;13.226;2022-11-14T13:59:52;11.00;87.00
64209;DHT22;50527;52.414;13.226;2022-11-14T14:11:23;10.90;87.40
64209;DHT22;50527;52.414;13.226;2022-11-14T14:19:30;10.70;88.40
64209;DHT22;50527;52.414;13.226;2022-11-14T14:25:08;10.80;88.00
64209;DHT22;50527;52.414;13.226;2022-11-14T14:27:59;10.80;88.10
64209;DHT22;50527;52.414;13.226;2022-11-14T14:30:27;10.80;88.50
64209;DHT22;50527;52.414;13.226;2022-11-14T14:33:14;10.70;89.10
64209;DHT22;50527;52.414;13.226;2022-11-14T14:35:49;10.70;88.70
64209;DHT22;50527;52.414;13.226;2022-11-14T14:38:24;10.60;89.90
64209;DHT22;50527;52.414;13.226;2022-11-14T14:40:53;10.60;90.30
64209;DHT22;50527;52.414;13.226;2022-11-14T14:43:31;10.50;90.40
64209;DHT22;50527;52.414;13.226;2022-11-14T14:45:58;10.40;90.80
64209;DHT22;50527;52.414;13.226;2022-11-14T14:48:29;10.50;90.80
64209;DHT22;50527;52.414;13.226;2022-11-14T14:50:57;10.50;90.60
64209;DHT22;50527;52.414;13.226;2022-11-14T14:53:26;10.40;91.00
64209;DHT22;50527;52.414;13.226;2022-11-14T14:56:04;10.30;90.80
64209;DHT22;50527;52.414;13.226;2022-11-14T14:58:32;10.20;91.40
64209;DHT22;50527;52.414;13.226;2022-11-14T15:01:00;10.20;91.70
64209;DHT22;50527;52.414;13.226;2022-11-14T15:03:31;10.10;92.00
64209;DHT22;50527;52.414;13.226;2022-11-14T15:06:02;10.00;92.10
64209;DHT22;50527;52.414;13.226;2022-11-14T15:08:31;10.00;92.50
64209;DHT22;50527;52.414;13.226;2022-11-14T15:11:00;10.00;92.40
64209;DHT22;50527;52.414;13.226;2022-11-14T15:13:27;9.90;92.50
64209;DHT22;50527;52.414;13.226;2022-11-14T15:15:53;9.80;92.50
64209;DHT22;50527;52.414;13.226;2022-11-14T15:18:24;9.80;92.50
64209;DHT22;50527;52.414;13.226;2022-11-14T15:21:07;9.70;92.90
64209;DHT22;50527;52.414;13.226;2022-11-14T15:23:34;9.70;93.70
64209;DHT22;50527;52.414;13.226;2022-11-14T15:26:02;9.60;93.10
64209;DHT22;50527;52.414;13.226;2022-11-14T15:28:28;9.50;93.60
64209;DHT22;50527;52.414;13.226;2022-11-14T15:31:02;9.50;93.70
64209;DHT22;50527;52.414;13.226;2022-11-14T15:33:30;9.40;94.10
64209;DHT22;50527;52.414;13.226;2022-11-14T15:36:09;9.40;94.60
64209;DHT22;50527;52.414;13.226;2022-11-14T15:38:35;9.40;94.60
64209;DHT22;50527;52.414;13.226;2022-11-14T15:41:20;9.40;94.20
64209;DHT22;50527;52.414;13.226;2022-11-14T15:43:47;9.30;93.70
64209;DHT22;50527;52.414;13.226;2022-11-14T15:49:05;9.10;94.90
64209;DHT22;50527;52.414;13.226;2022-11-14T15:52:00;9.10;94.70
64209;DHT22;50527;52.414;13.226;2022-11-14T15:56:56;9.00;94.10
64209;DHT22;50527;52.414;13.226;2022-11-14T15:59:22;9.00;94.50
64209;DHT22;50527;52.414;13.226;2022-11-14T16:01:51;8.90;94.10
64209;DHT22;50527;52.414;13.226;2022-11-14T16:04:19;8.80;95.10
64209;DHT22;50527;52.414;13.226;2022-11-14T16:06:45;8.80;94.90
64209;DHT22;50527;52.414;13.226;2022-11-14T16:09:18;8.70;94.90
64209;DHT22;50527;52.414;13.226;2022-11-14T16:11:45;8.70;95.90
64209;DHT22;50527;52.414;13.226;2022-11-14T16:14:10;8.80;96.20
64209;DHT22;50527;52.414;13.226;2022-11-14T16:16:36;8.70;94.90
64209;DHT22;50527;52.414;13.226;2022-11-14T16:19:02;8.70;94.80
64209;DHT22;50527;52.414;13.226;2022-11-14T16:21:28;8.60;94.90
64209;DHT22;50527;52.414;13.226;2022-11-14T16:23:53;8.50;94.90
64209;DHT22;50527;52.414;13.226;2022-11-14T16:26:19;8.50;95.10
64209;DHT22;50527;52.414;13.226;2022-11-14T16:28:44;8.50;95.40
64209;DHT22;50527;52.414;13.226;2022-11-14T16:31:11;8.50;95.40
64209;DHT22;50527;52.414;13.226;2022-11-14T16:33:37;8.40;95.30
64209;DHT22;50527;52.414;13.226;2022-11-14T16:36:02;8.30;95.30
64209;DHT22;50527;52.414;13.226;2022-11-14T16:38:28;8.30;95.30
64209;DHT22;50527;52.414;13.226;2022-11-14T16:40:53;8.30;95.70
64209;DHT22;50527;52.414;13.226;2022-11-14T16:43:19;8.40;96.80
64209;DHT22;50527;52.414;13.226;2022-11-14T16:45:45;8.40;97.00
64209;DHT22;50527;52.414;13.226;2022-11-14T16:48:11;8.30;97.30
64209;DHT22;50527;52.414;13.226;2022-11-14T16:50:37;8.30;97.70
64209;DHT22;50527;52.414;13.226;2022-11-14T16:53:02;8.20;97.90
64209;DHT22;50527;52.414;13.226;2022-11-14T16:55:28;8.20;97.80
64209;DHT22;50527;52.414;13.226;2022-11-14T16:57:53;8.20;97.10
64209;DHT22;50527;52.414;13.226;2022-11-14T17:00:19;8.20;96.20
64209;DHT22;50527;52.414;13.226;2022-11-14T17:02:44;8.10;95.50
64209;DHT22;50527;52.414;13.226;2022-11-14T17:05:11;8.10;95.40
64209;DHT22;50527;52.414;13.226;2022-11-14T17:07:36;8.00;95.20
64209;DHT22;50527;52.414;13.226;2022-11-14T17:10:03;7.90;95.60
64209;DHT22;50527;52.414;13.226;2022-11-14T17:12:29;7.90;95.20
64209;DHT22;50527;52.414;13.226;2022-11-14T17:14:56;7.80;96.00
64209;DHT22;50527;52.414;13.226;2022-11-14T17:17:22;7.80;96.50
64209;DHT22;50527;52.414;13.226;2022-11-14T17:19:47;7.70;96.80
64209;DHT22;50527;52.414;13.226;2022-11-14T17:22:14;7.70;96.80
64209;DHT22;50527;52.414;13.226;2022-11-14T17:24:40;7.70;96.60